Time;durP1;ratioP1;P1;durP2;ratioP2;P2;SDS_P1;SDS_P2;PMS_P1;PMS_P2;Temp;Humidity;BMP_temperature;BMP_pressure;BME280_temperature;BME280_humidity;BME280_pressure;Samples;Min_cycle;Max_cycle;Signal;HPM_P1;HPM_P2
2022/01/17 00:00:18;;;;;;;184.65;105.60;;;0.30;2201.60;;;;;;5015626;28;20125;-88
2022/01/17 00:02:45;;;;;;;172.10;94.50;;;0.00;2201.60;;;;;;5015231;28;20054;-84
2022/01/17 00:05:11;;;;;;;180.60;101.35;;;0.10;2201.60;;;;;;5015075;28;20029;-87
2022/01/17 00:07:37;;;;;;;166.98;94.00;;;0.10;2201.60;;;;;;5015326;28;20044;-86
2022/01/17 00:10:05;;;;;;;147.63;83.90;;;12.90;2201.60;;;;;;5015077;28;20112;-86
2022/01/17 00:12:35;;;;;;;133.23;76.47;;;13.00;2201.60;;;;;;5016214;28;20022;-85
2022/01/17 00:15:01;;;;;;;128.52;70.88;;;0.00;2201.60;;;;;;5015192;28;20037;-85
2022/01/17 00:17:38;;;;;;;138.93;75.65;;;0.00;2201.60;;;;;;5019249;28;20025;-82
2022/01/17 00:20:11;;;;;;;177.48;95.13;;;0.00;2201.60;;;;;;5031667;28;20025;-82
2022/01/17 00:22:41;;;;;;;168.45;92.63;;;13.00;2201.60;;;;;;5032584;28;20022;-82
2022/01/17 00:25:08;;;;;;;136.88;76.55;;;13.10;2201.60;;;;;;5033145;28;20026;-83
2022/01/17 00:27:35;;;;;;;148.77;78.78;;;13.00;2201.60;;;;;;5033223;28;20116;-83
2022/01/17 00:30:05;;;;;;;155.98;86.97;;;0.00;2201.60;;;;;;5033662;28;20108;-81
2022/01/17 00:32:31;;;;;;;149.15;80.82;;;12.90;2201.60;;;;;;5033586;28;20028;-83
2022/01/17 00:34:57;;;;;;;142.77;75.22;;;0.00;2201.60;;;;;;5033023;28;20029;-82
2022/01/17 00:37:23;;;;;;;131.90;69.45;;;13.10;2201.60;;;;;;5033485;28;20076;-84
2022/01/17 00:39:49;;;;;;;174.20;89.47;;;13.00;2201.60;;;;;;5032931;28;20025;-82
2022/01/17 00:42:15;;;;;;;222.45;116.32;;;12.90;2201.60;;;;;;5032785;28;20029;-84
2022/01/17 00:44:41;;;;;;;246.52;126.32;;;13.00;2201.60;;;;;;5033265;28;20036;-84
2022/01/17 00:47:07;;;;;;;210.75;110.50;;;13.30;2201.60;;;;;;5032876;28;20025;-90
2022/01/17 00:49:33;;;;;;;205.93;106.63;;;13.40;2201.60;;;;;;5034346;28;20064;-85
2022/01/17 00:51:59;;;;;;;233.95;118.20;;;13.10;2201.60;;;;;;5034264;28;20030;-86
2022/01/17 00:54:25;;;;;;;222.82;113.72;;;12.90;2201.60;;;;;;5034230;28;20036;-86
2022/01/17 00:56:51;;;;;;;221.38;118.40;;;12.90;2201.60;;;;;;5034181;28;20028;-88
2022/01/17 00:59:17;;;;;;;203.88;109.45;;;12.90;2201.60;;;;;;5033823;28;20022;-81
2022/01/17 01:01:43;;;;;;;193.10;105.25;;;13.00;2201.60;;;;;;5033677;28;20042;-86
2022/01/17 01:04:08;;;;;;;164.15;90.70;;;12.90;2201.60;;;;;;5034203;28;20369;-88
2022/01/17 01:06:36;;;;;;;160.77;88.80;;;0.10;2201.60;;;;;;5033888;28;20032;-86
2022/01/17 01:09:03;;;;;;;181.20;96.70;;;0.10;2201.60;;;;;;5034113;28;20025;-85
2022/01/17 01:11:29;;;;;;;183.65;100.55;;;13.00;2201.60;;;;;;5033934;28;20026;-87
2022/01/17 01:13:55;;;;;;;196.13;107.53;;;13.00;2201.60;;;;;;5033839;28;20087;-86
2022/01/17 01:16:32;;;;;;;197.63;104.10;;;0.00;2201.60;;;;;;5033935;28;20032;-87
2022/01/17 01:29:44;;;;;;;167.88;89.47;;;13.40;2201.60;;;;;;5034715;28;20028;-88
2022/01/17 01:32:10;;;;;;;188.15;103.18;;;13.10;2201.60;;;;;;5034221;28;20346;-89
2022/01/17 01:34:44;;;;;;;235.80;120.63;;;13.00;2201.60;;;;;;5033477;28;20044;-88
2022/01/17 01:37:10;;;;;;;275.77;139.48;;;13.30;2201.60;;;;;;5033761;28;20104;-86
2022/01/17 01:39:37;;;;;;;246.02;127.25;;;13.30;2201.60;;;;;;5033655;28;20436;-85
2022/01/17 01:42:04;;;;;;;214.77;112.57;;;13.30;2201.60;;;;;;5033311;28;20449;-86
2022/01/17 01:44:30;;;;;;;287.20;148.95;;;13.10;2201.60;;;;;;5033337;28;20075;-90
2022/01/17 01:46:57;;;;;;;219.90;120.32;;;13.30;2201.60;;;;;;5033178;28;20025;-87
2022/01/17 01:49:25;;;;;;;223.88;125.65;;;13.10;2201.60;;;;;;5033355;28;20588;-90
2022/01/17 01:51:51;;;;;;;237.85;125.70;;;13.00;2201.60;;;;;;5033461;28;20370;-86
2022/01/17 01:54:18;;;;;;;278.60;140.65;;;13.00;2201.60;;;;;;5033274;28;20080;-86
2022/01/17 01:56:46;;;;;;;271.67;142.38;;;12.90;2201.60;;;;;;5033108;28;20032;-88
2022/01/17 01:59:13;;;;;;;222.88;119.93;;;0.00;2201.60;;;;;;5033345;28;20453;-86
2022/01/17 02:01:39;;;;;;;151.77;83.78;;;13.40;2201.60;;;;;;5032711;28;20045;-86
2022/01/17 02:04:06;;;;;;;157.95;88.60;;;13.30;2201.60;;;;;;5032954;28;20099;-88
2022/01/17 02:06:32;;;;;;;130.77;74.60;;;13.30;2201.60;;;;;;5033196;28;20025;-84
2022/01/17 02:09:00;;;;;;;169.30;88.63;;;13.30;2201.60;;;;;;5032949;28;20044;-88
2022/01/17 02:11:26;;;;;;;154.38;86.80;;;13.50;2201.60;;;;;;5032948;28;20064;-87
2022/01/17 02:13:52;;;;;;;161.23;90.55;;;13.50;2201.60;;;;;;5033243;28;20368;-87
2022/01/17 02:16:22;;;;;;;131.13;71.40;;;13.60;2201.60;;;;;;5033031;28;20079;-86
2022/01/17 02:18:49;;;;;;;105.88;63.50;;;13.70;2201.60;;;;;;5033024;28;20025;-87
2022/01/17 02:23:44;;;;;;;128.68;70.65;;;38.40;2201.60;;;;;;5034138;28;20025;-89
2022/01/17 02:26:11;;;;;;;110.57;64.47;;;13.60;2201.60;;;;;;5032954;28;20120;-87
2022/01/17 02:28:37;;;;;;;80.70;48.88;;;13.50;2201.60;;;;;;5032989;28;20172;-87
2022/01/17 02:31:06;;;;;;;74.75;45.90;;;13.50;2201.60;;;;;;5032728;28;20022;-86
2022/01/17 02:36:54;;;;;;;84.60;47.65;;;13.50;2201.60;;;;;;5034425;28;20020;-85
2022/01/17 02:39:20;;;;;;;78.00;46.50;;;13.50;2201.60;;;;;;5032498;28;20017;-86
2022/01/17 02:41:49;;;;;;;80.05;43.35;;;13.60;2201.60;;;;;;5032628;28;20029;-86
2022/01/17 02:44:15;;;;;;;86.68;50.65;;;13.60;2201.60;;;;;;5032652;28;20508;-88
2022/01/17 02:46:41;;;;;;;83.45;51.13;;;13.70;2201.60;;;;;;5034661;28;20074;-86
2022/01/17 02:49:08;;;;;;;112.53;64.05;;;13.70;2201.60;;;;;;5036584;28;20467;-86
2022/01/17 02:51:35;;;;;;;123.18;69.40;;;38.40;2201.60;;;;;;5036577;28;20018;-88
2022/01/17 02:54:01;;;;;;;102.30;60.47;;;13.40;2201.60;;;;;;5036870;28;20021;-86
2022/01/17 02:56:28;;;;;;;87.18;49.50;;;38.40;2201.60;;;;;;5037453;28;20151;-86
2022/01/17 02:58:54;;;;;;;98.68;53.25;;;38.70;2201.60;;;;;;5038482;28;20031;-86
2022/01/17 03:01:24;;;;;;;102.90;55.95;;;38.40;2201.60;;;;;;5038439;28;20041;-88
2022/01/17 03:03:50;;;;;;;115.80;60.83;;;13.70;2201.60;;;;;;5037533;28;20022;-86
2022/01/17 03:06:17;;;;;;;101.95;56.33;;;38.40;2201.60;;;;;;5036005;28;20025;-87
2022/01/17 03:08:44;;;;;;;105.03;59.50;;;38.50;2201.60;;;;;;5036191;28;20079;-88
2022/01/17 03:11:12;;;;;;;108.15;60.10;;;13.70;2201.60;;;;;;5036179;28;20065;-85
2022/01/17 03:13:39;;;;;;;116.50;65.15;;;13.70;2201.60;;;;;;5035887;28;20021;-87
2022/01/17 03:16:15;;;;;;;161.90;85.00;;;38.40;2201.60;;;;;;5035962;28;20029;-87
2022/01/17 03:18:47;;;;;;;170.23;88.65;;;38.40;2201.60;;;;;;5035920;28;20075;-87
2022/01/17 03:21:15;;;;;;;145.38;77.45;;;13.60;2201.60;;;;;;5036025;28;20043;-88
2022/01/17 03:23:42;;;;;;;136.50;75.00;;;13.40;2201.60;;;;;;5036059;28;20022;-88
2022/01/17 03:26:08;;;;;;;142.05;79.85;;;13.60;2201.60;;;;;;5036018;28;20469;-85
2022/01/17 03:28:34;;;;;;;157.52;86.40;;;13.50;2201.60;;;;;;5036077;28;20060;-86
2022/01/17 03:31:00;;;;;;;150.30;86.45;;;0.10;2201.60;;;;;;5035849;28;20064;-86
2022/01/17 03:33:27;;;;;;;166.82;89.95;;;13.30;2201.60;;;;;;5035490;28;20405;-88
2022/01/17 03:35:53;;;;;;;131.25;73.72;;;13.60;2201.60;;;;;;5035752;28;20071;-88
2022/01/17 03:38:21;;;;;;;133.80;68.45;;;13.60;2201.60;;;;;;5035626;28;20404;-87
2022/01/17 03:40:50;;;;;;;107.65;58.20;;;38.40;2201.60;;;;;;5035336;28;20025;-86
2022/01/17 03:43:16;;;;;;;83.78;50.60;;;13.60;2201.60;;;;;;5035592;28;20025;-85
2022/01/17 03:45:42;;;;;;;72.97;42.45;;;13.60;2201.60;;;;;;5035652;28;20036;-88
2022/01/17 03:48:08;;;;;;;77.85;42.90;;;13.40;2201.60;;;;;;5035287;28;20064;-88
2022/01/17 03:50:35;;;;;;;61.60;40.20;;;13.50;2201.60;;;;;;5035534;28;20112;-86
2022/01/17 03:53:01;;;;;;;71.22;41.55;;;13.60;2201.60;;;;;;5035262;28;20040;-87
2022/01/17 03:55:28;;;;;;;74.07;41.72;;;13.40;2201.60;;;;;;5035093;28;20032;-86
2022/01/17 03:57:54;;;;;;;88.50;49.17;;;13.60;2201.60;;;;;;5034314;28;20520;-85
2022/01/17 04:00:26;;;;;;;99.40;60.00;;;13.60;2201.60;;;;;;5035283;28;20071;-84
2022/01/17 04:02:53;;;;;;;89.82;50.95;;;13.50;2201.60;;;;;;5035332;28;20453;-86
2022/01/17 04:05:20;;;;;;;126.88;73.53;;;13.60;2201.60;;;;;;5035192;28;20144;-86
2022/01/17 04:07:46;;;;;;;125.20;71.63;;;13.70;2201.60;;;;;;5035002;28;20035;-88
2022/01/17 04:10:13;;;;;;;123.25;72.30;;;13.70;2201.60;;;;;;5034941;28;20040;-87
2022/01/17 04:12:40;;;;;;;113.88;66.25;;;13.60;2201.60;;;;;;5034995;28;20022;-86
2022/01/17 04:15:07;;;;;;;124.93;67.78;;;13.50;2201.60;;;;;;5034945;28;20445;-87
2022/01/17 04:17:34;;;;;;;110.47;66.18;;;13.40;2201.60;;;;;;5034664;28;20053;-87
2022/01/17 04:20:05;;;;;;;118.70;66.97;;;13.40;2201.60;;;;;;5034933;28;20083;-86
2022/01/17 04:22:35;;;;;;;166.68;79.20;;;13.20;2201.60;;;;;;5034776;28;20029;-86
2022/01/17 04:25:02;;;;;;;199.75;103.25;;;13.50;2201.60;;;;;;5034874;28;20059;-87
2022/01/17 04:27:28;;;;;;;116.90;64.57;;;13.50;2201.60;;;;;;5034873;28;20168;-86
2022/01/17 04:29:54;;;;;;;82.38;45.83;;;38.40;2201.60;;;;;;5034825;28;20064;-87
2022/01/17 04:32:22;;;;;;;76.53;43.60;;;38.60;2201.60;;;;;;5034725;28;20022;-86
2022/01/17 04:34:48;;;;;;;77.63;43.88;;;38.40;2201.60;;;;;;5034405;28;20075;-87
2022/01/17 04:37:16;;;;;;;85.32;47.05;;;13.70;2201.60;;;;;;5034385;28;20021;-87
2022/01/17 04:39:42;;;;;;;68.22;39.10;;;13.70;2201.60;;;;;;5034316;28;20013;-86
2022/01/17 04:42:12;;;;;;;89.90;48.90;;;13.60;2201.60;;;;;;5034214;28;20017;-87
2022/01/17 04:47:31;;;;;;;155.50;86.90;;;13.50;2201.60;;;;;;5035599;28;20040;-86
2022/01/17 04:49:57;;;;;;;151.43;90.53;;;13.40;2201.60;;;;;;5034190;28;20028;-86
2022/01/17 04:52:23;;;;;;;155.65;86.13;;;13.70;2201.60;;;;;;5034129;28;20381;-86
2022/01/17 04:54:54;;;;;;;163.40;90.15;;;13.50;2201.60;;;;;;5034335;28;20112;-84
2022/01/17 04:57:21;;;;;;;152.55;84.40;;;13.60;2201.60;;;;;;5034635;28;20335;-86
2022/01/17 04:59:48;;;;;;;149.07;81.80;;;13.20;2201.60;;;;;;5034196;28;20442;-87
2022/01/17 05:02:14;;;;;;;92.22;56.08;;;13.50;2201.60;;;;;;5033986;28;20053;-88
2022/01/17 05:04:40;;;;;;;86.00;51.47;;;13.70;2201.60;;;;;;5033771;28;20052;-86
2022/01/17 05:07:06;;;;;;;95.55;56.30;;;13.50;2201.60;;;;;;5034095;28;20064;-86
2022/01/17 05:09:32;;;;;;;146.90;79.75;;;13.40;2201.60;;;;;;5033609;28;20024;-86
2022/01/17 05:11:58;;;;;;;175.48;100.72;;;13.20;2201.60;;;;;;5034058;28;20103;-84
2022/01/17 05:14:25;;;;;;;169.63;100.35;;;13.20;2201.60;;;;;;5034217;28;20388;-86
2022/01/17 05:16:59;;;;;;;194.00;110.68;;;13.10;2201.60;;;;;;5034058;28;20029;-87
2022/01/17 05:22:09;;;;;;;210.95;119.95;;;13.20;2201.60;;;;;;5059107;28;20048;-85
2022/01/17 05:24:35;;;;;;;188.98;108.68;;;13.20;2201.60;;;;;;5058294;28;20021;-85
2022/01/17 05:27:01;;;;;;;188.63;112.20;;;13.40;2201.60;;;;;;5058062;28;20077;-87
2022/01/17 05:29:27;;;;;;;180.13;111.40;;;13.60;2201.60;;;;;;5058127;28;20009;-88
2022/01/17 05:31:53;;;;;;;164.38;97.57;;;13.70;2201.60;;;;;;5058059;28;20012;-86
2022/01/17 05:34:19;;;;;;;133.93;80.90;;;13.60;2201.60;;;;;;5056059;28;20032;-86
2022/01/17 05:36:45;;;;;;;88.25;50.70;;;13.40;2201.60;;;;;;5055591;28;20656;-87
2022/01/17 05:39:11;;;;;;;100.60;60.75;;;13.40;2201.60;;;;;;5034837;28;20018;-90
2022/01/17 05:41:37;;;;;;;124.50;78.75;;;13.40;2201.60;;;;;;5035627;28;20025;-86
2022/01/17 05:44:03;;;;;;;123.95;78.72;;;13.60;2201.60;;;;;;5035624;28;20023;-87
2022/01/17 05:46:29;;;;;;;96.00;62.38;;;13.70;2201.60;;;;;;5035091;28;20026;-86
2022/01/17 05:48:55;;;;;;;107.70;61.92;;;13.70;2201.60;;;;;;5033480;28;20032;-86
2022/01/17 05:51:21;;;;;;;105.60;60.20;;;13.70;2201.60;;;;;;5033126;28;20071;-86
2022/01/17 05:53:47;;;;;;;110.07;64.43;;;13.70;2201.60;;;;;;5033190;28;20021;-88
2022/01/17 05:56:13;;;;;;;131.63;81.97;;;13.60;2201.60;;;;;;5032989;28;20029;-88
2022/01/17 05:58:38;;;;;;;144.18;89.22;;;13.60;2201.60;;;;;;5033249;28;20052;-87
2022/01/17 06:01:05;;;;;;;132.48;82.88;;;13.50;2201.60;;;;;;5032721;28;20081;-85
2022/01/17 06:03:32;;;;;;;150.15;87.30;;;13.50;2201.60;;;;;;5033247;28;20044;-87
2022/01/17 06:05:58;;;;;;;203.43;112.47;;;13.50;2201.60;;;;;;5033048;28;20117;-85
2022/01/17 06:08:24;;;;;;;579.03;309.48;;;13.40;2201.60;;;;;;5032802;28;20469;-88
2022/01/17 06:10:50;;;;;;;662.70;371.85;;;13.50;2201.60;;;;;;5033046;28;20024;-89
2022/01/17 06:13:16;;;;;;;476.48;262.20;;;13.50;2201.60;;;;;;5032892;28;20389;-86
2022/01/17 06:15:42;;;;;;;313.38;186.27;;;13.50;2201.60;;;;;;5032865;28;20116;-86
2022/01/17 06:18:08;;;;;;;274.30;156.48;;;13.40;2201.60;;;;;;5033085;28;20098;-86
2022/01/17 06:20:34;;;;;;;251.85;154.23;;;13.50;2201.60;;;;;;5033252;28;20029;-87
2022/01/17 06:25:51;;;;;;;221.80;129.70;;;38.50;2201.60;;;;;;5038060;28;20076;-86
2022/01/17 06:28:19;;;;;;;213.90;126.97;;;13.60;2201.60;;;;;;5037842;28;20048;-86
2022/01/17 06:30:45;;;;;;;247.85;141.57;;;13.40;2201.60;;;;;;5036766;28;20060;-87
2022/01/17 06:33:11;;;;;;;270.70;145.52;;;13.30;2201.60;;;;;;5036804;28;20045;-87
2022/01/17 06:35:37;;;;;;;136.57;83.40;;;13.40;2201.60;;;;;;5036456;28;20021;-86
2022/01/17 06:38:03;;;;;;;104.72;63.03;;;13.30;2201.60;;;;;;5036875;28;20025;-87
2022/01/17 06:40:30;;;;;;;136.75;77.65;;;13.50;2201.60;;;;;;5036831;28;20454;-85
2022/01/17 06:42:56;;;;;;;118.13;68.70;;;13.30;2201.60;;;;;;5036414;28;20029;-87
2022/01/17 06:45:22;;;;;;;90.95;55.70;;;13.30;2201.60;;;;;;5036630;28;20032;-88
2022/01/17 06:47:48;;;;;;;106.80;60.22;;;13.40;2201.60;;;;;;5036687;28;20488;-88
2022/01/17 06:50:14;;;;;;;102.30;60.28;;;13.50;2201.60;;;;;;5036364;28;20032;-86
2022/01/17 06:52:41;;;;;;;106.22;66.13;;;13.20;2201.60;;;;;;5036631;28;20025;-87
2022/01/17 06:55:08;;;;;;;105.93;62.78;;;13.40;2201.60;;;;;;5036513;28;20136;-86
2022/01/17 06:57:34;;;;;;;101.88;61.85;;;13.20;2201.60;;;;;;5036275;28;20013;-82
2022/01/17 07:00:00;;;;;;;157.50;95.57;;;13.00;2201.60;;;;;;5036186;28;20017;-86
2022/01/17 07:02:26;;;;;;;173.80;100.20;;;0.50;2201.60;;;;;;5036038;28;20601;-88
2022/01/17 07:04:52;;;;;;;143.68;88.07;;;13.10;2201.60;;;;;;5036027;28;20029;-86
2022/01/17 07:07:20;;;;;;;153.60;90.57;;;13.10;2201.60;;;;;;5036381;28;20025;-87
2022/01/17 07:09:46;;;;;;;169.73;109.65;;;13.00;2201.60;;;;;;5036308;28;20021;-89
2022/01/17 07:12:12;;;;;;;186.13;120.13;;;12.90;2201.60;;;;;;5036268;28;20029;-88
2022/01/17 07:14:41;;;;;;;186.48;116.43;;;12.90;2201.60;;;;;;5036069;28;20334;-87
2022/01/17 07:17:11;;;;;;;166.02;109.25;;;0.00;2201.60;;;;;;5036605;28;20357;-86
2022/01/17 07:19:38;;;;;;;157.35;98.70;;;0.90;2201.60;;;;;;5036061;28;20087;-87
2022/01/17 07:22:05;;;;;;;143.55;91.80;;;0.40;2201.60;;;;;;5036150;28;20445;-87
2022/01/17 07:24:32;;;;;;;151.93;96.38;;;0.50;2201.60;;;;;;5035845;28;20018;-86
2022/01/17 07:26:58;;;;;;;134.18;87.13;;;0.60;2201.60;;;;;;5036095;28;20583;-87
2022/01/17 07:29:24;;;;;;;144.65;89.60;;;0.60;2201.60;;;;;;5035912;28;20060;-88
2022/01/17 07:31:50;;;;;;;164.95;105.32;;;0.50;2201.60;;;;;;5035495;28;20021;-86
2022/01/17 07:34:16;;;;;;;152.27;94.82;;;0.50;2201.60;;;;;;5035862;28;20028;-88
2022/01/17 07:36:42;;;;;;;155.98;94.82;;;0.40;2201.60;;;;;;5035883;28;20031;-88
2022/01/17 07:39:09;;;;;;;169.27;105.38;;;0.80;2201.60;;;;;;5035871;28;20465;-88
2022/01/17 07:41:35;;;;;;;144.80;93.40;;;0.90;2201.60;;;;;;5036098;28;20036;-90
2022/01/17 07:44:03;;;;;;;154.18;98.28;;;0.80;2201.60;;;;;;5036124;28;20037;-89
2022/01/17 07:46:34;;;;;;;194.43;119.30;;;25.60;2201.60;;;;;;5035676;28;20068;-89
2022/01/17 07:49:10;;;;;;;193.38;117.25;;;0.90;2201.60;;;;;;5035738;28;20117;-89
2022/01/17 07:51:40;;;;;;;214.43;131.13;;;25.60;2201.60;;;;;;5035855;28;20025;-87
2022/01/17 07:54:08;;;;;;;205.18;123.82;;;0.80;2201.60;;;;;;5035477;28;20029;-85
2022/01/17 07:56:35;;;;;;;213.40;134.75;;;25.60;2201.60;;;;;;5035485;28;20021;-86
2022/01/17 07:59:01;;;;;;;223.68;136.25;;;25.70;2201.60;;;;;;5035379;28;20029;-86
2022/01/17 08:01:27;;;;;;;202.88;119.53;;;25.80;2201.60;;;;;;5035021;28;20055;-87
2022/01/17 08:03:53;;;;;;;168.02;105.63;;;25.90;2201.60;;;;;;5035329;28;20018;-88
2022/01/17 08:06:18;;;;;;;175.10;104.90;;;26.10;2201.60;;;;;;5035261;28;20052;-89
2022/01/17 08:08:44;;;;;;;166.20;104.97;;;26.20;2201.60;;;;;;5035089;28;20112;-86
2022/01/17 08:11:10;;;;;;;180.13;113.05;;;26.30;2201.60;;;;;;5035224;28;20120;-86
2022/01/17 08:13:36;;;;;;;182.38;117.18;;;26.30;2201.60;;;;;;5034921;28;20032;-85
2022/01/17 08:16:02;;;;;;;183.45;119.25;;;26.30;2201.60;;;;;;5035094;28;20032;-85
2022/01/17 08:18:29;;;;;;;177.18;114.28;;;26.50;2201.60;;;;;;5035266;28;20365;-86
2022/01/17 08:20:58;;;;;;;178.65;108.78;;;26.50;2201.60;;;;;;5034946;28;20021;-87
2022/01/17 08:23:24;;;;;;;161.52;96.80;;;51.20;2227.20;;;;;;5035004;28;20157;-87
2022/01/17 08:25:50;;;;;;;155.95;97.95;;;51.20;2227.20;;;;;;5034571;28;20025;-86
2022/01/17 08:28:16;;;;;;;179.65;110.10;;;51.30;2227.20;;;;;;5034536;28;20033;-85
2022/01/17 08:30:42;;;;;;;171.90;107.05;;;51.40;2227.20;;;;;;5034572;28;20024;-86
2022/01/17 08:33:08;;;;;;;148.13;94.63;;;51.40;2227.20;;;;;;5034745;28;20475;-86
2022/01/17 08:35:34;;;;;;;157.73;100.10;;;51.40;2227.20;;;;;;5034478;28;20031;-87
2022/01/17 08:38:00;;;;;;;155.35;101.57;;;51.50;2227.20;;;;;;5034625;28;20029;-85
2022/01/17 08:40:26;;;;;;;130.05;86.55;;;51.50;2227.20;;;;;;5034846;28;20112;-86
2022/01/17 08:42:52;;;;;;;137.32;89.85;;;51.60;2227.20;;;;;;5034401;28;20043;-86
2022/01/17 08:45:21;;;;;;;160.02;101.25;;;51.80;2227.20;;;;;;5033838;28;20029;-87
2022/01/17 08:47:49;;;;;;;152.02;95.68;;;51.80;2227.20;;;;;;5034904;28;20350;-82
2022/01/17 08:50:17;;;;;;;153.40;95.90;;;51.70;2227.20;;;;;;5034534;28;20033;-87
2022/01/17 08:52:49;;;;;;;129.63;82.00;;;51.70;2227.20;;;;;;5034302;28;20025;-84
2022/01/17 08:55:19;;;;;;;121.25;76.60;;;51.80;2227.20;;;;;;5034042;28;20034;-81
2022/01/17 08:57:45;;;;;;;115.32;74.07;;;51.70;2227.20;;;;;;5035431;28;20029;-85
2022/01/17 09:00:15;;;;;;;114.25;72.40;;;51.80;2227.20;;;;;;5033981;28;20032;-84
2022/01/17 09:02:41;;;;;;;114.72;74.95;;;51.80;2227.20;;;;;;5034600;28;20048;-81
2022/01/17 09:05:07;;;;;;;98.18;64.25;;;51.80;2227.20;;;;;;5035114;28;20025;-85
2022/01/17 09:07:33;;;;;;;95.30;63.92;;;51.80;2227.20;;;;;;5033766;28;20026;-85
2022/01/17 09:09:59;;;;;;;149.02;84.28;;;51.90;2227.20;;;;;;5034122;28;20025;-87
2022/01/17 09:12:25;;;;;;;169.85;94.97;;;51.90;2227.20;;;;;;5033390;28;20026;-78
2022/01/17 09:14:51;;;;;;;182.35;100.95;;;51.90;2227.20;;;;;;5033276;28;20025;-76
2022/01/17 09:17:16;;;;;;;186.05;106.35;;;52.00;2227.20;;;;;;5033958;28;20484;-77
2022/01/17 09:19:43;;;;;;;162.23;98.30;;;51.90;2227.20;;;;;;5033195;28;20385;-80
2022/01/17 09:22:10;;;;;;;145.85;89.30;;;51.80;2227.20;;;;;;5033150;28;20053;-80
2022/01/17 09:24:37;;;;;;;144.93;88.72;;;51.90;2227.20;;;;;;5032781;28;20034;-80
2022/01/17 09:27:05;;;;;;;138.32;86.03;;;52.00;2227.20;;;;;;5033228;28;20057;-77
2022/01/17 09:29:32;;;;;;;135.25;85.45;;;52.10;2227.20;;;;;;5034326;28;20018;-77
2022/01/17 09:31:59;;;;;;;154.02;96.45;;;76.80;2227.20;;;;;;5032800;28;20086;-77
2022/01/17 09:34:24;;;;;;;146.57;97.05;;;76.90;2227.20;;;;;;5032959;28;20025;-83
2022/01/17 09:36:50;;;;;;;158.15;99.65;;;76.90;2227.20;;;;;;5033515;28;20027;-85
2022/01/17 09:39:16;;;;;;;183.10;112.60;;;76.90;2227.20;;;;;;5033417;28;20025;-84
2022/01/17 09:41:42;;;;;;;141.95;94.25;;;76.90;2227.20;;;;;;5033506;28;20021;-82
2022/01/17 09:44:09;;;;;;;174.85;104.55;;;77.00;2227.20;;;;;;5034734;28;20025;-82
2022/01/17 09:46:41;;;;;;;168.45;110.03;;;77.00;2227.20;;;;;;5035029;28;20029;-83
2022/01/17 09:49:21;;;;;;;151.90;92.53;;;77.00;2227.20;;;;;;5028272;28;20105;-86
2022/01/17 09:54:29;;;;;;;161.38;113.18;;;77.10;2227.20;;;;;;5033418;28;20032;-82
2022/01/17 09:56:56;;;;;;;155.13;100.13;;;77.10;2227.20;;;;;;5031162;28;20029;-82
2022/01/17 09:59:23;;;;;;;135.32;93.13;;;77.20;2227.20;;;;;;5033116;28;20025;-82
2022/01/17 10:01:49;;;;;;;147.20;100.07;;;77.20;2227.20;;;;;;5032437;28;20041;-83
2022/01/17 10:04:17;;;;;;;187.32;121.72;;;77.20;2227.20;;;;;;5032153;28;20021;-84
2022/01/17 10:06:51;;;;;;;203.57;131.52;;;77.30;2227.20;;;;;;5031843;28;20369;-81
2022/01/17 10:09:22;;;;;;;213.23;137.30;;;77.30;2227.20;;;;;;5031756;28;20414;-83
2022/01/17 10:12:12;;;;;;;242.25;160.40;;;77.40;2227.20;;;;;;5032223;28;20025;-81
2022/01/17 10:14:42;;;;;;;240.95;160.70;;;77.50;2227.20;;;;;;5031877;28;20025;-83
2022/01/17 10:17:18;;;;;;;277.80;182.30;;;77.50;2227.20;;;;;;5031919;28;20033;-79
2022/01/17 10:19:44;;;;;;;275.92;181.20;;;77.50;2227.20;;;;;;5033045;28;20107;-80
2022/01/17 10:22:21;;;;;;;305.58;207.85;;;77.60;2227.20;;;;;;5031781;28;20475;-80
2022/01/17 10:25:04;;;;;;;271.40;174.63;;;77.50;2227.20;;;;;;5031947;28;20026;-82
2022/01/17 10:28:12;;;;;;;75.13;46.67;;;77.60;2227.20;;;;;;5031637;28;20025;-82
2022/01/17 10:30:46;;;;;;;75.85;41.65;;;102.60;2227.20;;;;;;5032170;28;20040;-84
2022/01/17 10:35:57;;;;;;;37.72;22.13;;;103.20;2227.20;;;;;;5033273;28;20048;-82
2022/01/17 10:38:27;;;;;;;36.92;20.70;;;128.00;2252.80;;;;;;5031297;28;20022;-84
2022/01/17 10:40:59;;;;;;;18.63;11.63;;;128.20;2252.80;;;;;;5031590;28;20033;-83
2022/01/17 10:43:38;;;;;;;28.13;15.95;;;128.40;2252.80;;;;;;5032017;28;20032;-82
2022/01/17 10:46:07;;;;;;;29.15;16.30;;;128.50;2252.80;;;;;;5031407;28;20423;-83
2022/01/17 10:48:54;;;;;;;24.60;13.55;;;128.60;2252.80;;;;;;5031634;28;20021;-82
2022/01/17 10:51:28;;;;;;;25.58;15.75;;;128.80;2252.80;;;;;;5031803;28;20017;-81
2022/01/17 10:53:55;;;;;;;36.00;20.63;;;128.80;2252.80;;;;;;5031157;28;20025;-81
2022/01/17 10:56:25;;;;;;;36.75;22.67;;;128.80;2252.80;;;;;;5032805;28;20449;-81
2022/01/17 10:59:02;;;;;;;26.08;17.42;;;128.90;2252.80;;;;;;5031628;28;20025;-82
2022/01/17 11:01:36;;;;;;;25.13;15.90;;;153.60;2252.80;;;;;;5031016;28;20076;-84
2022/01/17 11:04:08;;;;;;;31.83;20.13;;;153.70;2252.80;;;;;;5031718;28;20053;-82
2022/01/17 11:06:46;;;;;;;44.03;22.50;;;153.80;2252.80;;;;;;5032685;28;20047;-80
2022/01/17 11:09:12;;;;;;;49.63;29.58;;;153.90;2252.80;;;;;;5035169;28;20104;-82
2022/01/17 11:11:40;;;;;;;34.40;22.20;;;154.00;2252.80;;;;;;5035306;28;20025;-84
2022/01/17 11:14:09;;;;;;;29.48;18.58;;;154.10;2252.80;;;;;;5034672;28;20063;-84
2022/01/17 11:16:38;;;;;;;31.58;20.48;;;154.10;2252.80;;;;;;5034832;28;20457;-81
2022/01/17 11:20:02;;;;;;;28.77;19.08;;;154.10;2252.80;;;;;;5034986;28;20515;-83
2022/01/17 11:21:50;;;;;;;25.58;16.83;;;154.30;2252.80;;;;;;5035330;28;20112;-81
2022/01/17 11:24:16;;;;;;;39.47;22.73;;;154.40;2252.80;;;;;;5034901;28;20112;-82
2022/01/17 11:26:42;;;;;;;52.10;35.47;;;154.50;2252.80;;;;;;5034867;28;20034;-84
2022/01/17 11:29:08;;;;;;;47.28;32.90;;;154.30;2252.80;;;;;;5034505;28;20108;-81
2022/01/17 11:31:34;;;;;;;36.88;24.98;;;154.20;2252.80;;;;;;5034756;28;20525;-82
2022/01/17 11:34:00;;;;;;;40.22;28.52;;;154.40;2252.80;;;;;;5034979;28;20052;-81
2022/01/17 11:36:27;;;;;;;43.45;24.17;;;179.40;2252.80;;;;;;5034295;28;20036;-82
2022/01/17 11:38:55;;;;;;;33.20;21.00;;;179.60;2252.80;;;;;;5035069;28;20021;-80
2022/01/17 11:41:39;;;;;;;39.63;26.85;;;179.90;2252.80;;;;;;5034566;28;20059;-83
2022/01/17 11:44:07;;;;;;;41.30;29.30;;;180.10;2252.80;;;;;;5034008;28;20033;-80
2022/01/17 11:46:35;;;;;;;60.50;43.92;;;204.90;2252.80;;;;;;5034503;28;20067;-84
2022/01/17 11:49:09;;;;;;;63.08;46.55;;;204.90;2252.80;;;;;;5034553;28;20087;-82
2022/01/17 11:51:45;;;;;;;28.20;17.00;;;205.00;2252.80;;;;;;5034203;28;20396;-81
2022/01/17 11:54:18;;;;;;;22.88;13.55;;;205.20;2252.80;;;;;;5035762;28;20068;-82
2022/01/17 11:56:53;;;;;;;19.65;12.23;;;205.50;2252.80;;;;;;5034532;28;20026;-82
2022/01/17 11:59:26;;;;;;;15.35;8.70;;;205.40;2201.60;;;;;;5033894;28;20026;-82
2022/01/17 12:02:18;;;;;;;21.45;13.13;;;230.40;2150.40;;;;;;5034463;28;20041;-80
2022/01/17 12:05:12;;;;;;;20.48;14.27;;;230.70;2124.80;;;;;;5034128;28;20031;-84
2022/01/17 12:07:44;;;;;;;14.75;9.93;;;230.90;2124.80;;;;;;5034501;28;20020;-87
2022/01/17 12:10:16;;;;;;;16.85;11.95;;;231.00;2048.00;;;;;;5036325;28;20045;-85
2022/01/17 12:13:03;;;;;;;19.45;9.98;;;231.10;2048.00;;;;;;5034897;28;20527;-82
2022/01/17 12:15:51;;;;;;;19.60;11.25;;;231.10;2048.00;;;;;;5035224;28;20469;-84
2022/01/17 12:22:10;;;;;;;25.30;14.90;;;231.30;2022.40;;;;;;5013755;28;20041;-84
2022/01/17 12:24:38;;;;;;;16.33;9.57;;;256.20;1996.80;;;;;;5009492;28;20033;-83
2022/01/17 12:34:59;;;;;;;;;;;;;;;;;;;;;
2022/01/17 12:37:46;;;;;;;14.20;8.55;;;256.30;1920.00;;;;;;4898242;29;20091;-84
2022/01/17 12:40:30;;;;;;;14.15;8.77;;;256.20;1894.40;;;;;;4898278;29;20072;-83
2022/01/17 12:43:17;;;;;;;15.05;9.50;;;256.30;1894.40;;;;;;5005215;28;20451;-81
2022/01/17 12:45:49;;;;;;;15.63;10.20;;;256.20;1868.80;;;;;;5033983;28;20026;-82